createdAt,value
2022-10-04T00:01:13.712Z,75.50
2022-10-04T00:03:50.020Z,75.20
2022-10-04T00:06:24.697Z,75.30
2022-10-04T00:09:01.067Z,75.40
2022-10-04T00:11:44.160Z,75.50
2022-10-04T00:14:27.934Z,75.70
2022-10-04T00:16:56.529Z,76.00
2022-10-04T00:19:48.068Z,75.60
2022-10-04T00:22:27.667Z,75.80
2022-10-04T00:25:10.081Z,75.70
2022-10-04T00:27:39.683Z,75.90
2022-10-04T00:30:06.823Z,75.80
2022-10-04T00:32:40.384Z,75.90
2022-10-04T00:35:27.807Z,76.00
2022-10-04T00:38:29.697Z,76.60
2022-10-04T00:41:08.975Z,76.30
2022-10-04T00:43:47.352Z,75.90
2022-10-04T00:46:25.547Z,75.90
2022-10-04T00:49:03.304Z,75.80
2022-10-04T00:51:43.857Z,75.70
2022-10-04T00:54:35.418Z,75.70
2022-10-04T00:57:08.194Z,76.00
2022-10-04T00:59:49.149Z,75.60
2022-10-04T01:02:46.237Z,75.60
2022-10-04T01:05:22.371Z,75.60
2022-10-04T01:07:56.844Z,75.70
2022-10-04T01:10:39.538Z,75.50
2022-10-04T01:13:20.616Z,75.50
2022-10-04T01:16:14.953Z,75.30
2022-10-04T01:18:42.538Z,75.30
2022-10-04T01:21:28.123Z,74.90
2022-10-04T01:23:58.267Z,75.10
2022-10-04T01:26:32.520Z,74.90
2022-10-04T01:29:18.214Z,74.80
2022-10-04T01:31:51.216Z,75.00
2022-10-04T01:34:24.504Z,74.80
2022-10-04T01:36:57.760Z,74.80
2022-10-04T01:39:27.200Z,74.80
2022-10-04T01:42:11.439Z,74.90
2022-10-04T01:44:49.907Z,74.90
2022-10-04T01:47:27.104Z,74.90
2022-10-04T01:49:58.391Z,74.90
2022-10-04T01:52:37.165Z,74.80
2022-10-04T01:55:19.526Z,74.80
2022-10-04T01:58:16.566Z,74.70
2022-10-04T02:00:52.402Z,74.70
2022-10-04T02:03:45.847Z,74.50
2022-10-04T02:06:15.829Z,74.60
2022-10-04T02:08:49.937Z,74.60
2022-10-04T02:11:20.527Z,74.70
2022-10-04T02:13:52.601Z,74.70
2022-10-04T02:16:22.113Z,74.80
2022-10-04T02:18:51.432Z,74.70
2022-10-04T02:21:20.134Z,74.60
2022-10-04T02:23:48.017Z,74.60
2022-10-04T02:26:15.336Z,74.60
2022-10-04T02:28:42.694Z,74.60
2022-10-04T02:31:29.919Z,74.70
2022-10-04T02:33:59.394Z,74.70
2022-10-04T02:36:29.811Z,74.60
2022-10-04T02:39:13.796Z,74.60
2022-10-04T02:41:53.213Z,74.70
2022-10-04T02:44:26.569Z,74.70
2022-10-04T02:47:17.752Z,74.50
2022-10-04T02:50:39.096Z,74.70
2022-10-04T02:53:32.518Z,74.60
2022-10-04T02:56:02.610Z,74.40
2022-10-04T02:58:31.005Z,74.30
2022-10-04T03:01:01.930Z,74.30
2022-10-04T03:03:35.291Z,74.40
2022-10-04T03:06:20.726Z,74.40
2022-10-04T03:08:59.144Z,74.40
2022-10-04T03:11:31.937Z,74.40
2022-10-04T03:14:03.168Z,74.40
2022-10-04T03:16:40.797Z,74.40
2022-10-04T03:19:09.213Z,74.50
2022-10-04T03:21:39.371Z,74.50
2022-10-04T03:24:08.979Z,74.60
2022-10-04T03:26:50.761Z,74.60
2022-10-04T03:29:19.699Z,74.70
2022-10-04T03:31:51.319Z,74.80
2022-10-04T03:34:26.587Z,74.70
2022-10-04T03:36:59.283Z,74.80
2022-10-04T03:39:43.120Z,74.70
2022-10-04T03:42:24.369Z,74.80
2022-10-04T03:44:56.511Z,74.80
2022-10-04T03:47:40.662Z,74.70
2022-10-04T03:50:26.505Z,74.80
2022-10-04T03:53:07.177Z,74.60
2022-10-04T03:55:43.714Z,74.50
2022-10-04T03:58:17.318Z,74.40
2022-10-04T04:01:10.207Z,74.40
2022-10-04T04:04:05.346Z,74.40
2022-10-04T04:07:07.341Z,74.50
2022-10-04T04:10:06.076Z,74.40
2022-10-04T04:12:44.402Z,74.30
2022-10-04T04:15:14.291Z,74.30
2022-10-04T04:17:46.425Z,74.30
2022-10-04T04:20:34.942Z,74.30
2022-10-04T04:23:45.045Z,74.50
2022-10-04T04:26:25.793Z,74.30
2022-10-04T04:29:36.833Z,74.30
2022-10-04T04:32:28.547Z,74.20
2022-10-04T04:35:07.095Z,74.20
2022-10-04T04:37:38.884Z,74.30
2022-10-04T04:40:24.300Z,74.20
2022-10-04T04:42:52.602Z,74.50
2022-10-04T04:45:25.882Z,74.00
2022-10-04T04:47:57.367Z,74.00
2022-10-04T04:50:56.158Z,74.20
2022-10-04T04:53:29.121Z,74.20
2022-10-04T04:56:05.037Z,74.20
2022-10-04T04:58:43.077Z,74.30
2022-10-04T05:01:33.495Z,74.40
2022-10-04T05:04:14.492Z,74.40
2022-10-04T05:06:50.051Z,74.50
2022-10-04T05:09:23.219Z,74.60
2022-10-04T05:11:52.957Z,74.80
2022-10-04T05:14:21.219Z,74.90
2022-10-04T05:16:56.026Z,75.00
2022-10-04T05:19:39.577Z,75.30
2022-10-04T05:22:13.647Z,75.30
2022-10-04T05:24:44.897Z,75.40
2022-10-04T05:27:36.021Z,75.50
2022-10-04T05:30:30.744Z,75.80
2022-10-04T05:33:03.832Z,75.90
2022-10-04T05:36:09.737Z,75.60
2022-10-04T05:39:12.468Z,75.80
2022-10-04T05:42:07.901Z,76.00
2022-10-04T05:44:52.365Z,75.70
2022-10-04T05:47:24.088Z,75.90
2022-10-04T05:49:57.514Z,75.80
2022-10-04T05:52:30.658Z,76.60
2022-10-04T05:55:16.234Z,75.70
2022-10-04T05:57:58.374Z,76.30
2022-10-04T06:01:03.365Z,76.10
2022-10-04T06:04:17.604Z,76.70
2022-10-04T06:06:59.459Z,76.50
2022-10-04T06:09:39.941Z,76.50
2022-10-04T06:12:40.144Z,76.60
2022-10-04T06:15:32.886Z,76.90
2022-10-04T06:18:08.814Z,76.70
2022-10-04T06:21:03.201Z,76.80
2022-10-04T06:23:33.947Z,77.20
2022-10-04T06:26:14.963Z,77.20
2022-10-04T06:28:48.969Z,77.60
2022-10-04T06:31:44.038Z,77.40
2022-10-04T06:34:29.874Z,77.40
2022-10-04T06:37:22.121Z,77.40
2022-10-04T06:40:20.777Z,77.60
2022-10-04T06:43:14.158Z,77.80
2022-10-04T06:46:17.354Z,77.40
2022-10-04T06:49:24.054Z,77.30
2022-10-04T06:52:09.599Z,77.50
2022-10-04T06:55:06.926Z,77.30
2022-10-04T06:58:02.563Z,77.40
2022-10-04T07:00:38.085Z,77.70
2022-10-04T07:03:16.129Z,77.70
2022-10-04T07:05:46.654Z,77.80
2022-10-04T07:08:34.078Z,77.80
2022-10-04T07:11:30.252Z,77.90
2022-10-04T07:14:04.001Z,78.00
2022-10-04T07:16:56.578Z,77.80
2022-10-04T07:19:33.790Z,78.30
2022-10-04T07:22:06.631Z,78.00
2022-10-04T07:24:51.896Z,77.90
2022-10-04T07:28:13.879Z,77.90
2022-10-04T07:31:23.358Z,77.90
2022-10-04T07:33:58.303Z,78.00
2022-10-04T07:36:49.488Z,77.80
2022-10-04T07:39:31.261Z,78.20
2022-10-04T07:42:23.695Z,77.90
2022-10-04T07:45:20.997Z,78.30
2022-10-04T07:47:48.375Z,78.30
2022-10-04T07:50:30.149Z,78.10
2022-10-04T07:53:21.029Z,78.00
2022-10-04T07:56:09.883Z,78.30
2022-10-04T07:59:18.537Z,78.00
2022-10-04T08:02:07.294Z,77.90
2022-10-04T08:05:18.772Z,77.60
2022-10-04T08:08:34.117Z,77.30
2022-10-04T08:11:22.520Z,77.10
2022-10-04T08:14:00.928Z,77.00
2022-10-04T08:17:15.395Z,76.90
2022-10-04T08:20:33.492Z,76.60
2022-10-04T08:23:27.954Z,76.50
2022-10-04T08:26:12.923Z,76.60
2022-10-04T08:29:12.230Z,76.60
2022-10-04T08:32:05.085Z,76.70
2022-10-04T08:34:53.238Z,77.10
2022-10-04T08:37:53.804Z,77.20
2022-10-04T08:40:54.412Z,77.30
2022-10-04T08:44:02.683Z,76.50
2022-10-04T08:46:32.547Z,76.30
2022-10-04T08:50:06.981Z,76.50
2022-10-04T08:53:29.717Z,76.20
2022-10-04T08:56:24.108Z,76.00
2022-10-04T08:59:21.628Z,75.70
2022-10-04T09:02:01.435Z,74.70
2022-10-04T09:04:43.527Z,74.80
2022-10-04T09:07:43.920Z,74.50
2022-10-04T09:10:55.359Z,74.30
2022-10-04T09:13:43.516Z,75.00
2022-10-04T09:16:42.257Z,75.40
2022-10-04T09:19:21.810Z,75.70
2022-10-04T09:22:33.916Z,75.70
2022-10-04T09:25:41.646Z,75.00
2022-10-04T09:28:49.174Z,74.40
2022-10-04T09:31:58.348Z,74.90
2022-10-04T09:34:56.149Z,74.30
2022-10-04T09:38:04.754Z,74.30
2022-10-04T09:41:03.874Z,74.00
2022-10-04T09:44:16.197Z,74.50
2022-10-04T09:47:31.970Z,74.60
2022-10-04T09:50:54.377Z,74.30
2022-10-04T09:54:04.314Z,74.20
2022-10-04T09:57:01.312Z,74.10
2022-10-04T09:59:50.621Z,73.90
2022-10-04T10:02:55.582Z,73.40
2022-10-04T10:06:28.452Z,72.70
2022-10-04T10:09:18.536Z,72.50
2022-10-04T10:12:53.169Z,72.70
2022-10-04T10:15:49.403Z,71.30
2022-10-04T10:18:49.349Z,72.40
2022-10-04T10:21:44.277Z,70.50
2022-10-04T10:24:54.835Z,70.30
2022-10-04T10:27:55.273Z,68.90
2022-10-04T10:30:31.299Z,69.00
2022-10-04T10:33:24.437Z,70.20
2022-10-04T10:36:26.387Z,70.00
2022-10-04T10:39:12.095Z,68.30
2022-10-04T10:42:19.958Z,67.80
2022-10-04T10:45:22.128Z,67.50
2022-10-04T10:48:19.389Z,69.00
2022-10-04T10:51:25.952Z,68.80
2022-10-04T10:54:23.047Z,66.20
2022-10-04T10:57:20.363Z,68.00
2022-10-04T11:00:11.980Z,67.30
2022-10-04T11:03:32.302Z,67.60
2022-10-04T11:06:26.242Z,66.50
2022-10-04T11:09:19.462Z,66.80
2022-10-04T11:12:01.428Z,66.30
2022-10-04T11:15:14.610Z,67.90
2022-10-04T11:18:14.011Z,66.20
2022-10-04T11:20:52.942Z,66.20
2022-10-04T11:23:53.534Z,65.00
2022-10-04T11:26:48.673Z,64.80
2022-10-04T11:29:24.941Z,64.20
2022-10-04T11:32:00.986Z,65.80
2022-10-04T11:34:47.132Z,64.40
2022-10-04T11:37:31.707Z,65.20
2022-10-04T11:40:05.706Z,63.10
2022-10-04T11:43:04.047Z,65.00
2022-10-04T11:46:01.565Z,63.00
2022-10-04T11:49:25.386Z,64.50
2022-10-04T11:52:04.773Z,64.60
2022-10-04T11:55:21.138Z,64.40
2022-10-04T11:58:25.676Z,64.60
2022-10-04T12:01:14.242Z,64.30
2022-10-04T12:04:18.875Z,63.40
2022-10-04T12:07:41.482Z,62.60
2022-10-04T12:10:23.693Z,61.90
2022-10-04T12:13:21.851Z,62.00
2022-10-04T12:16:38.594Z,61.80
2022-10-04T12:20:01.954Z,61.40
2022-10-04T12:23:24.725Z,61.00
2022-10-04T12:26:47.633Z,61.10
2022-10-04T12:29:42.581Z,61.00
2022-10-04T12:32:27.440Z,61.30
2022-10-04T12:35:35.376Z,60.40
2022-10-04T12:38:23.477Z,60.50
2022-10-04T12:41:27.832Z,61.60
2022-10-04T12:44:35.672Z,60.50
2022-10-04T12:47:25.390Z,59.70
2022-10-04T12:50:26.135Z,59.90
2022-10-04T12:54:01.504Z,59.60
2022-10-04T12:56:41.574Z,59.50
2022-10-04T12:59:39.951Z,60.60
2022-10-04T13:02:44.723Z,59.80
2022-10-04T13:05:30.059Z,59.90
2022-10-04T13:08:16.656Z,60.20
2022-10-04T13:11:36.577Z,61.20
2022-10-04T13:14:31.427Z,60.20
2022-10-04T13:17:27.818Z,60.40
2022-10-04T13:20:32.019Z,60.90
2022-10-04T13:23:10.566Z,59.70
2022-10-04T13:26:21.231Z,60.20
2022-10-04T13:29:13.337Z,59.70
2022-10-04T13:32:04.657Z,59.20
2022-10-04T13:34:54.071Z,59.20
2022-10-04T13:37:45.855Z,59.20
2022-10-04T13:40:50.689Z,60.20
2022-10-04T13:43:55.139Z,58.70
2022-10-04T13:47:04.785Z,58.60
2022-10-04T13:50:17.597Z,59.10
2022-10-04T13:53:37.049Z,58.10
2022-10-04T13:56:42.487Z,58.80
2022-10-04T13:59:37.204Z,57.50
2022-10-04T14:02:52.926Z,57.30
2022-10-04T14:05:47.032Z,57.60
2022-10-04T14:08:36.786Z,57.60
2022-10-04T14:11:49.216Z,58.90
2022-10-04T14:14:19.087Z,56.40
2022-10-04T14:17:28.069Z,58.60
2022-10-04T14:20:47.950Z,56.90
2022-10-04T14:23:44.526Z,57.20
2022-10-04T14:27:13.347Z,56.90
2022-10-04T14:30:20.865Z,56.80
2022-10-04T14:33:31.040Z,56.30
2022-10-04T14:36:16.603Z,56.30
2022-10-04T14:39:13.826Z,56.20
2022-10-04T14:42:02.513Z,57.40
2022-10-04T14:44:58.302Z,57.30
2022-10-04T14:48:09.794Z,55.30
2022-10-04T14:51:20.052Z,55.30
2022-10-04T14:54:26.931Z,57.20
2022-10-04T14:57:22.653Z,54.80
2022-10-04T15:00:16.462Z,55.10
2022-10-04T15:03:05.377Z,54.00
2022-10-04T15:05:53.209Z,53.70
2022-10-04T15:08:26.610Z,53.30
2022-10-04T15:11:07.255Z,54.60
2022-10-04T15:13:57.666Z,53.80
2022-10-04T15:16:37.297Z,54.50
2022-10-04T15:19:21.970Z,53.40
2022-10-04T15:22:06.515Z,51.60
2022-10-04T15:24:42.690Z,50.80
2022-10-04T15:27:34.150Z,51.70
2022-10-04T15:30:30.904Z,52.00
2022-10-04T15:33:20.680Z,50.00
2022-10-04T15:36:05.473Z,50.20
2022-10-04T15:38:48.651Z,49.00
2022-10-04T15:41:47.866Z,50.20
2022-10-04T15:45:05.768Z,49.90
2022-10-04T15:48:11.166Z,49.40
2022-10-04T15:51:07.328Z,47.60
2022-10-04T15:53:50.287Z,47.10
2022-10-04T15:56:36.030Z,46.80
2022-10-04T15:59:36.306Z,47.00
2022-10-04T16:02:25.080Z,46.10
2022-10-04T16:05:17.744Z,46.80
2022-10-04T16:08:11.742Z,44.70
2022-10-04T16:11:08.620Z,44.60
2022-10-04T16:13:51.830Z,44.40
2022-10-04T16:16:19.514Z,44.60
2022-10-04T16:18:52.477Z,45.90
2022-10-04T16:21:42.255Z,45.90
2022-10-04T16:24:18.413Z,45.70
2022-10-04T16:26:50.993Z,46.30
2022-10-04T16:30:14.469Z,47.10
2022-10-04T16:32:46.942Z,47.10
2022-10-04T16:35:30.302Z,48.00
2022-10-04T16:38:12.737Z,48.10
2022-10-04T16:41:11.474Z,48.80
2022-10-04T16:43:52.936Z,48.90
2022-10-04T16:46:23.320Z,49.30
2022-10-04T16:49:16.475Z,49.80
2022-10-04T16:52:28.170Z,50.20
2022-10-04T16:54:58.154Z,50.40
2022-10-04T16:57:27.923Z,51.10
2022-10-04T17:00:07.542Z,51.60
2022-10-04T17:02:58.242Z,51.90
2022-10-04T17:06:14.138Z,52.50
2022-10-04T17:09:30.890Z,52.80
2022-10-04T17:12:27.283Z,53.20
2022-10-04T17:15:07.921Z,53.60
2022-10-04T17:18:06.363Z,53.30
2022-10-04T17:20:42.596Z,53.90
2022-10-04T17:23:43.648Z,53.90
2022-10-04T17:26:38.922Z,54.30
2022-10-04T17:29:53.754Z,54.40
2022-10-04T17:32:55.490Z,55.30
2022-10-04T17:36:19.283Z,55.00
2022-10-04T17:39:20.015Z,55.70
2022-10-04T17:41:56.823Z,55.30
2022-10-04T17:44:48.066Z,55.70
2022-10-04T17:47:23.970Z,55.60
2022-10-04T17:50:21.827Z,55.90
2022-10-04T17:53:15.983Z,56.40
2022-10-04T17:55:56.059Z,56.60
2022-10-04T17:58:39.930Z,56.80
2022-10-04T18:01:35.405Z,56.80
2022-10-04T18:04:26.266Z,57.50
2022-10-04T18:07:10.341Z,58.00
2022-10-04T18:09:50.816Z,57.30
2022-10-04T18:13:02.112Z,57.50
2022-10-04T18:15:32.673Z,58.50
2022-10-04T18:18:23.052Z,57.80
2022-10-04T18:21:05.371Z,58.60
2022-10-04T18:23:39.618Z,58.00
2022-10-04T18:26:18.365Z,58.30
2022-10-04T18:28:47.629Z,58.40
2022-10-04T18:31:43.889Z,58.40
2022-10-04T18:34:10.960Z,58.50
2022-10-04T18:37:05.585Z,58.70
2022-10-04T18:39:45.738Z,59.90
2022-10-04T18:42:30.159Z,58.90
2022-10-04T18:45:21.014Z,59.90
2022-10-04T18:47:51.002Z,59.10
2022-10-04T18:50:20.980Z,59.10
2022-10-04T18:52:59.765Z,59.30
2022-10-04T18:55:52.061Z,59.70
2022-10-04T18:58:49.763Z,59.50
2022-10-04T19:02:01.716Z,59.50
2022-10-04T19:04:59.167Z,59.70
2022-10-04T19:07:55.767Z,60.50
2022-10-04T19:10:50.929Z,60.40
2022-10-04T19:13:54.504Z,60.70
2022-10-04T19:16:44.855Z,61.30
2022-10-04T19:19:36.955Z,60.20
2022-10-04T19:22:26.770Z,60.40
2022-10-04T19:25:12.312Z,61.00
2022-10-04T19:27:57.446Z,61.10
2022-10-04T19:31:07.170Z,60.70
2022-10-04T19:34:05.312Z,61.80
2022-10-04T19:36:51.705Z,61.00
2022-10-04T19:39:37.507Z,61.30
2022-10-04T19:42:22.083Z,62.50
2022-10-04T19:45:13.753Z,61.80
2022-10-04T19:47:56.816Z,61.30
2022-10-04T19:50:37.601Z,61.40
2022-10-04T19:53:45.301Z,61.30
2022-10-04T19:56:21.100Z,62.50
2022-10-04T19:59:10.863Z,61.70
2022-10-04T20:01:38.750Z,61.70
2022-10-04T20:04:35.228Z,61.50
2022-10-04T20:07:06.835Z,61.90
2022-10-04T20:09:56.345Z,61.90
2022-10-04T20:12:40.650Z,63.60
2022-10-04T20:15:46.734Z,63.50
2022-10-04T20:18:31.976Z,63.70
2022-10-04T20:21:01.764Z,63.10
2022-10-04T20:23:40.846Z,62.30
2022-10-04T20:26:43.380Z,63.10
2022-10-04T20:32:01.595Z,62.40
2022-10-04T20:34:37.294Z,62.50
2022-10-04T20:37:09.844Z,62.70
2022-10-04T20:39:43.389Z,62.80
2022-10-04T20:42:37.158Z,62.80
2022-10-04T20:45:10.351Z,62.70
2022-10-04T20:47:50.658Z,63.10
2022-10-04T20:50:36.070Z,63.10
2022-10-04T20:53:34.287Z,63.80
2022-10-04T20:56:30.489Z,63.10
2022-10-04T20:59:04.186Z,63.90
2022-10-04T21:01:36.563Z,63.10
2022-10-04T21:04:35.686Z,63.20
2022-10-04T21:07:07.759Z,64.30
2022-10-04T21:09:37.253Z,63.40
2022-10-04T21:12:07.629Z,63.60
2022-10-04T21:14:37.329Z,63.80
2022-10-04T21:17:26.555Z,63.90
2022-10-04T21:19:53.683Z,63.90
2022-10-04T21:22:26.798Z,63.90
2022-10-04T21:24:57.151Z,64.40
2022-10-04T21:27:43.507Z,64.50
2022-10-04T21:30:17.253Z,65.80
2022-10-04T21:32:44.601Z,65.10
2022-10-04T21:35:12.814Z,65.10
2022-10-04T21:37:40.143Z,65.10
2022-10-04T21:40:08.735Z,65.00
2022-10-04T21:42:36.066Z,65.00
2022-10-04T21:45:03.402Z,65.00
2022-10-04T21:47:30.484Z,64.90
2022-10-04T21:49:57.697Z,64.80
2022-10-04T21:52:25.083Z,64.70
2022-10-04T21:54:52.262Z,64.60
2022-10-04T21:57:19.320Z,64.80
2022-10-04T21:59:47.376Z,64.80
2022-10-04T22:02:14.491Z,64.60
2022-10-04T22:04:41.937Z,64.60
2022-10-04T22:07:10.780Z,64.50
2022-10-04T22:09:38.128Z,64.60
2022-10-04T22:12:05.362Z,64.50
2022-10-04T22:14:32.389Z,64.60
2022-10-04T22:16:59.624Z,64.60
2022-10-04T22:19:26.715Z,64.60
2022-10-04T22:21:53.962Z,64.60
2022-10-04T22:24:21.665Z,64.60
2022-10-04T22:26:49.345Z,64.70
2022-10-04T22:29:18.322Z,64.70
2022-10-04T22:31:53.155Z,64.80
2022-10-04T22:34:22.895Z,65.00
2022-10-04T22:36:54.316Z,64.80
2022-10-04T22:39:22.022Z,65.00
2022-10-04T22:41:58.474Z,65.30
2022-10-04T22:44:37.412Z,65.40
2022-10-04T22:47:11.561Z,65.30
2022-10-04T22:49:42.863Z,65.10
2022-10-04T22:52:17.447Z,65.00
2022-10-04T22:54:53.416Z,65.00
2022-10-04T22:57:20.861Z,64.90
2022-10-04T22:59:51.584Z,65.00
2022-10-04T23:02:28.300Z,65.50
2022-10-04T23:05:19.242Z,65.70
2022-10-04T23:07:48.003Z,66.40
2022-10-04T23:10:18.975Z,65.50
2022-10-04T23:12:49.589Z,65.60
2022-10-04T23:15:20.774Z,65.60
2022-10-04T23:17:55.584Z,65.60
2022-10-04T23:20:23.842Z,65.90
2022-10-04T23:22:53.686Z,65.90
2022-10-04T23:25:28.791Z,65.80
2022-10-04T23:28:02.208Z,65.80
2022-10-04T23:30:29.600Z,65.60
2022-10-04T23:33:00.655Z,65.50
2022-10-04T23:35:33.032Z,65.50
2022-10-04T23:38:03.699Z,65.60
2022-10-04T23:40:30.994Z,65.60
2022-10-04T23:42:59.914Z,65.60
2022-10-04T23:45:27.269Z,65.70
2022-10-04T23:47:59.294Z,65.70
2022-10-04T23:50:32.784Z,65.70
2022-10-04T23:53:04.794Z,65.70
2022-10-04T23:55:39.347Z,65.30
2022-10-04T23:58:19.510Z,65.30
